createdAt,value
2022-11-07T00:00:16.269Z,4.35
2022-11-07T00:04:18.011Z,2.67
2022-11-07T00:08:19.650Z,3.58
2022-11-07T00:12:21.380Z,4.43
2022-11-07T00:16:23.018Z,4.55
2022-11-07T00:20:24.626Z,1.48
2022-11-07T00:24:26.209Z,3.65
2022-11-07T00:28:27.812Z,2.47
2022-11-07T00:32:29.457Z,3.87
2022-11-07T00:36:31.109Z,2.40
2022-11-07T00:40:32.828Z,3.15
2022-11-07T00:44:34.449Z,5.72
2022-11-07T00:48:36.860Z,3.08
2022-11-07T00:52:38.511Z,4.90
2022-11-07T00:56:40.154Z,3.17
2022-11-07T01:00:42.763Z,2.35
2022-11-07T01:05:02.957Z,1.35
2022-11-07T01:09:07.539Z,2.08
2022-11-07T01:13:09.135Z,1.98
2022-11-07T01:17:10.721Z,2.85
2022-11-07T01:21:16.492Z,3.37
2022-11-07T01:25:18.441Z,2.97
2022-11-07T01:29:20.349Z,3.60
2022-11-07T01:33:21.964Z,4.40
2022-11-07T01:37:23.585Z,2.70
2022-11-07T01:41:29.408Z,3.12
2022-11-07T01:45:31.166Z,1.20
2022-11-07T01:49:37.730Z,3.25
2022-11-07T01:53:40.409Z,3.15
2022-11-07T01:57:55.677Z,1.62
2022-11-07T02:01:57.755Z,1.92
2022-11-07T02:06:03.999Z,3.80
2022-11-07T02:10:06.439Z,4.62
2022-11-07T02:14:08.097Z,2.08
2022-11-07T02:18:09.931Z,2.72
2022-11-07T02:22:50.692Z,3.75
2022-11-07T02:26:53.672Z,3.87
2022-11-07T02:30:55.323Z,5.68
2022-11-07T02:35:05.122Z,1.90
2022-11-07T02:39:07.278Z,3.75
2022-11-07T02:43:11.777Z,1.30
2022-11-07T02:47:13.863Z,3.92
2022-11-07T02:51:15.883Z,4.40
2022-11-07T02:55:17.690Z,3.75
2022-11-07T02:59:24.265Z,4.40
2022-11-07T03:03:29.506Z,3.80
2022-11-07T03:07:31.186Z,3.83
2022-11-07T03:11:32.909Z,4.15
2022-11-07T03:15:34.504Z,5.20
2022-11-07T03:19:36.200Z,6.75
2022-11-07T03:23:37.841Z,3.12
2022-11-07T03:27:47.462Z,3.00
2022-11-07T03:31:49.122Z,3.55
2022-11-07T03:35:50.758Z,3.95
2022-11-07T03:39:52.358Z,4.80
2022-11-07T03:43:54.098Z,2.65
2022-11-07T03:47:55.839Z,2.87
2022-11-07T03:51:57.615Z,5.55
2022-11-07T03:55:59.198Z,3.97
2022-11-07T04:00:00.822Z,6.65
2022-11-07T04:04:02.458Z,3.10
2022-11-07T04:08:04.513Z,6.72
2022-11-07T04:12:25.329Z,6.20
2022-11-07T04:16:50.174Z,6.25
2022-11-07T04:20:51.809Z,5.15
2022-11-07T04:24:53.431Z,5.15
2022-11-07T04:28:55.150Z,5.97
2022-11-07T04:32:58.963Z,5.93
2022-11-07T04:37:00.587Z,4.50
2022-11-07T04:41:04.120Z,4.93
2022-11-07T04:45:06.807Z,4.18
2022-11-07T04:49:08.430Z,4.30
2022-11-07T04:53:16.508Z,6.15
2022-11-07T04:57:18.337Z,4.35
2022-11-07T05:01:19.961Z,4.18
2022-11-07T05:05:21.700Z,3.08
2022-11-07T05:09:23.308Z,3.03
2022-11-07T05:13:25.656Z,4.87
2022-11-07T05:17:28.192Z,5.12
2022-11-07T05:21:29.966Z,8.60
2022-11-07T05:25:31.565Z,5.60
2022-11-07T05:29:33.789Z,6.32
2022-11-07T05:33:36.337Z,4.50
2022-11-07T05:37:37.965Z,8.13
2022-11-07T05:41:39.618Z,8.70
2022-11-07T05:45:41.637Z,7.80
2022-11-07T05:49:43.234Z,7.80
2022-11-07T05:53:44.936Z,6.93
2022-11-07T05:57:46.918Z,8.18
2022-11-07T06:01:51.281Z,8.63
2022-11-07T06:05:53.131Z,7.95
2022-11-07T06:09:54.739Z,7.75
2022-11-07T06:13:56.488Z,13.00
2022-11-07T06:18:03.319Z,6.37
2022-11-07T06:22:05.203Z,10.43
2022-11-07T06:26:06.870Z,7.47
2022-11-07T06:30:09.050Z,4.85
2022-11-07T06:34:10.688Z,7.55
2022-11-07T06:38:14.448Z,7.05
2022-11-07T06:42:16.043Z,9.77
2022-11-07T06:46:19.670Z,6.72
2022-11-07T06:50:21.300Z,8.07
2022-11-07T06:54:22.996Z,10.98
2022-11-07T06:58:24.617Z,9.93
2022-11-07T07:02:52.155Z,6.55
2022-11-07T07:06:47.839Z,8.02
2022-11-07T07:10:49.511Z,8.93
2022-11-07T07:14:51.125Z,7.78
2022-11-07T07:18:52.779Z,10.45
2022-11-07T07:23:00.189Z,10.30
2022-11-07T07:27:04.509Z,7.35
2022-11-07T07:31:15.205Z,6.28
2022-11-07T07:35:16.960Z,9.43
2022-11-07T07:39:18.594Z,10.20
2022-11-07T07:43:20.530Z,12.77
2022-11-07T07:47:22.257Z,10.38
2022-11-07T07:51:23.965Z,5.12
2022-11-07T07:55:25.742Z,7.53
2022-11-07T07:59:27.417Z,5.50
2022-11-07T08:03:39.679Z,14.13
2022-11-07T08:07:51.428Z,9.95
2022-11-07T08:11:53.038Z,6.87
2022-11-07T08:15:54.703Z,9.50
2022-11-07T08:19:56.306Z,8.40
2022-11-07T08:23:58.179Z,9.68
2022-11-07T08:28:00.157Z,10.98
2022-11-07T08:32:01.823Z,9.48
2022-11-07T08:36:05.059Z,12.68
2022-11-07T08:40:07.448Z,11.73
2022-11-07T08:44:09.639Z,11.68
2022-11-07T08:48:11.432Z,8.43
2022-11-07T08:52:13.041Z,10.77
2022-11-07T08:56:14.680Z,10.38
2022-11-07T09:00:16.617Z,10.43
2022-11-07T09:04:18.392Z,13.35
2022-11-07T09:08:20.113Z,4.90
2022-11-07T09:12:21.804Z,9.18
2022-11-07T09:16:24.182Z,8.68
2022-11-07T09:20:25.821Z,7.30
2022-11-07T09:24:27.506Z,10.93
2022-11-07T09:28:29.856Z,12.50
2022-11-07T09:32:44.396Z,11.05
2022-11-07T09:36:46.957Z,11.80
2022-11-07T09:41:42.821Z,4.90
2022-11-07T09:46:17.601Z,13.10
2022-11-07T09:50:27.136Z,5.53
2022-11-07T09:54:34.452Z,7.37
2022-11-07T10:02:44.164Z,13.13
2022-11-07T10:06:58.729Z,10.82
2022-11-07T10:11:27.819Z,10.60
2022-11-07T10:15:51.954Z,11.18
2022-11-07T10:20:24.930Z,8.10
2022-11-07T10:24:35.474Z,10.20
2022-11-07T10:29:13.753Z,11.82
2022-11-07T10:37:35.831Z,10.23
2022-11-07T10:41:38.185Z,10.77
2022-11-07T10:45:40.797Z,7.97
2022-11-07T10:49:57.615Z,10.57
2022-11-07T10:53:59.194Z,12.43
2022-11-07T10:58:06.757Z,9.02
2022-11-07T11:02:24.572Z,12.60
2022-11-07T11:06:31.061Z,12.52
2022-11-07T11:10:38.546Z,9.73
2022-11-07T11:14:40.531Z,10.38
2022-11-07T11:18:50.781Z,11.43
2022-11-07T11:22:53.092Z,10.15
2022-11-07T11:26:59.109Z,9.77
2022-11-07T11:31:06.465Z,11.25
2022-11-07T11:39:26.151Z,11.12
2022-11-07T11:43:38.573Z,9.07
2022-11-07T11:47:44.268Z,10.88
2022-11-07T11:51:56.455Z,8.73
2022-11-07T11:56:06.805Z,9.52
2022-11-07T12:00:15.413Z,11.57
2022-11-07T12:04:31.887Z,10.23
2022-11-07T12:08:54.497Z,12.25
2022-11-07T12:13:23.253Z,8.55
2022-11-07T12:17:41.053Z,6.60
2022-11-07T12:22:03.300Z,8.55
2022-11-07T12:26:15.348Z,6.37
2022-11-07T12:30:33.955Z,6.60
2022-11-07T12:34:52.190Z,6.30
2022-11-07T12:39:04.366Z,5.20
2022-11-07T12:43:19.657Z,10.82
2022-11-07T12:47:30.239Z,5.65
2022-11-07T12:51:46.952Z,8.18
2022-11-07T12:56:00.308Z,7.40
2022-11-07T13:00:21.297Z,4.28
2022-11-07T13:04:38.647Z,5.97
2022-11-07T13:08:53.597Z,8.93
2022-11-07T13:13:23.646Z,6.43
2022-11-07T13:17:30.856Z,6.05
2022-11-07T13:25:42.538Z,5.93
2022-11-07T13:29:45.091Z,8.18
2022-11-07T13:33:46.779Z,7.53
2022-11-07T13:37:54.117Z,7.47
2022-11-07T13:41:56.529Z,5.47
2022-11-07T13:46:04.628Z,6.45
2022-11-07T13:50:19.748Z,10.60
2022-11-07T13:54:33.896Z,4.87
2022-11-07T13:58:39.240Z,10.48
2022-11-07T14:02:59.020Z,6.32
2022-11-07T14:07:02.833Z,7.43
2022-11-07T14:11:13.825Z,5.10
2022-11-07T14:15:17.224Z,6.93
2022-11-07T14:19:27.248Z,7.72
2022-11-07T14:23:32.364Z,5.57
2022-11-07T14:27:35.587Z,8.00
2022-11-07T14:31:38.097Z,8.48
2022-11-07T14:35:44.883Z,9.30
2022-11-07T14:39:47.055Z,5.10
2022-11-07T14:43:50.802Z,7.18
2022-11-07T14:47:52.467Z,9.05
2022-11-07T14:51:55.541Z,6.53
2022-11-07T14:56:02.223Z,4.90
2022-11-07T15:00:13.160Z,6.28
2022-11-07T15:04:24.358Z,9.63
2022-11-07T15:08:34.502Z,7.10
2022-11-07T15:12:48.804Z,6.93
2022-11-07T15:16:51.681Z,5.45
2022-11-07T15:20:59.583Z,3.53
2022-11-07T15:25:01.494Z,7.30
2022-11-07T15:29:15.164Z,8.02
2022-11-07T15:33:18.202Z,3.50
2022-11-07T15:37:22.364Z,7.18
2022-11-07T15:41:24.013Z,5.85
2022-11-07T15:45:25.700Z,5.47
2022-11-07T15:49:28.874Z,4.72
2022-11-07T15:53:30.527Z,6.57
2022-11-07T15:57:33.783Z,4.72
2022-11-07T16:01:35.465Z,5.55
2022-11-07T16:05:37.137Z,4.75
2022-11-07T16:09:39.003Z,4.57
2022-11-07T16:13:40.681Z,6.12
2022-11-07T16:17:42.377Z,6.75
2022-11-07T16:21:44.038Z,6.37
2022-11-07T16:25:49.630Z,5.28
2022-11-07T16:29:51.309Z,6.40
2022-11-07T16:33:55.757Z,4.05
2022-11-07T16:37:59.054Z,6.87
2022-11-07T16:42:00.691Z,5.28
2022-11-07T16:46:02.533Z,5.12
2022-11-07T16:50:06.854Z,3.05
2022-11-07T16:54:08.759Z,8.05
2022-11-07T16:58:29.217Z,6.20
2022-11-07T17:02:31.091Z,3.40
2022-11-07T17:06:34.788Z,4.25
2022-11-07T17:10:36.402Z,6.55
2022-11-07T17:14:38.064Z,5.12
2022-11-07T17:18:39.830Z,6.65
2022-11-07T17:22:41.434Z,4.25
2022-11-07T17:26:43.073Z,4.03
2022-11-07T17:30:44.798Z,6.93
2022-11-07T17:34:59.297Z,3.22
2022-11-07T17:39:13.198Z,4.60
2022-11-07T17:43:14.762Z,4.00
2022-11-07T17:47:34.063Z,5.12
2022-11-07T17:51:36.064Z,5.25
2022-11-07T17:55:37.706Z,6.05
2022-11-07T17:59:44.750Z,7.20
2022-11-07T18:03:49.249Z,8.02
2022-11-07T18:07:50.873Z,4.82
2022-11-07T18:11:52.511Z,6.18
2022-11-07T18:15:55.310Z,5.28
2022-11-07T18:19:56.964Z,5.43
2022-11-07T18:23:58.645Z,4.97
2022-11-07T18:28:00.337Z,4.22
2022-11-07T18:32:02.075Z,4.22
2022-11-07T18:36:06.918Z,7.43
2022-11-07T18:40:09.382Z,8.68
2022-11-07T18:44:12.299Z,4.18
2022-11-07T18:48:14.295Z,15.02
2022-11-07T18:52:16.161Z,8.95
2022-11-07T18:56:18.353Z,4.70
2022-11-07T19:00:20.005Z,8.73
2022-11-07T19:04:21.626Z,5.15
2022-11-07T19:08:23.248Z,8.00
2022-11-07T19:12:26.696Z,6.10
2022-11-07T19:16:28.488Z,6.28
2022-11-07T19:20:30.111Z,4.28
2022-11-07T19:24:31.766Z,9.15
2022-11-07T19:28:35.000Z,6.37
2022-11-07T19:32:36.712Z,6.53
2022-11-07T19:36:38.389Z,8.20
2022-11-07T19:40:41.326Z,7.97
2022-11-07T19:44:48.406Z,4.32
2022-11-07T19:48:52.406Z,5.37
2022-11-07T19:52:54.019Z,7.45
2022-11-07T19:56:57.632Z,7.15
2022-11-07T20:00:59.703Z,6.95
2022-11-07T20:05:01.832Z,7.15
2022-11-07T20:09:06.800Z,7.37
2022-11-07T20:13:08.422Z,7.40
2022-11-07T20:17:10.153Z,6.43
2022-11-07T20:21:16.319Z,7.18
2022-11-07T20:25:17.961Z,9.75
2022-11-07T20:29:22.722Z,6.87
2022-11-07T20:33:25.008Z,7.12
2022-11-07T20:37:26.665Z,6.70
2022-11-07T20:41:28.697Z,8.68
2022-11-07T20:45:30.317Z,9.00
2022-11-07T20:49:31.911Z,8.77
2022-11-07T20:53:33.514Z,9.65
2022-11-07T20:57:35.229Z,8.40
2022-11-07T21:01:37.857Z,10.90
2022-11-07T21:05:39.625Z,12.98
2022-11-07T21:09:41.267Z,7.22
2022-11-07T21:13:48.060Z,13.25
2022-11-07T21:17:54.162Z,6.87
2022-11-07T21:21:56.043Z,11.00
2022-11-07T21:25:58.387Z,8.75
2022-11-07T21:30:00.051Z,6.82
2022-11-07T21:34:01.821Z,5.80
2022-11-07T21:38:03.494Z,7.97
2022-11-07T21:42:05.309Z,8.82
2022-11-07T21:46:18.817Z,7.53
2022-11-07T21:50:43.057Z,9.45
2022-11-07T21:54:42.098Z,9.13
2022-11-07T21:58:44.478Z,10.73
2022-11-07T22:02:46.122Z,12.10
2022-11-07T22:06:48.020Z,6.55
2022-11-07T22:10:50.270Z,10.00
2022-11-07T22:14:51.915Z,10.65
2022-11-07T22:18:53.618Z,8.60
2022-11-07T22:22:55.259Z,10.68
2022-11-07T22:26:57.127Z,8.05
2022-11-07T22:30:59.057Z,7.87
2022-11-07T22:35:04.877Z,13.27
2022-11-07T22:39:09.862Z,14.63
2022-11-07T22:43:11.566Z,11.73
2022-11-07T22:47:13.231Z,8.52
2022-11-07T22:51:20.863Z,6.80
2022-11-07T22:55:22.489Z,10.95
2022-11-07T22:59:24.181Z,9.25
2022-11-07T23:03:25.840Z,11.48
2022-11-07T23:07:27.495Z,10.45
2022-11-07T23:11:50.043Z,10.75
2022-11-07T23:15:51.701Z,12.75
2022-11-07T23:19:53.971Z,7.97
2022-11-07T23:23:57.476Z,8.40
2022-11-07T23:27:59.173Z,10.23
2022-11-07T23:32:00.809Z,10.95
2022-11-07T23:36:05.169Z,12.55
2022-11-07T23:40:07.386Z,9.07
2022-11-07T23:44:10.369Z,9.15
2022-11-07T23:48:33.991Z,7.07
2022-11-07T23:52:35.559Z,7.47
2022-11-07T23:56:37.313Z,11.63
